Time;durP1;ratioP1;P1;durP2;ratioP2;P2;SDS_P1;SDS_P2;PMS_P1;PMS_P2;Temp;Humidity;BMP_temperature;BMP_pressure;BME280_temperature;BME280_humidity;BME280_pressure;Samples;Min_cycle;Max_cycle;Signal;HPM_P1;HPM_P2
2022/01/08 00:01:15;;;;;;;90.38;36.23;;;;;;;-7.60;64.69;97184.84;1721546;83;25893;-87
2022/01/08 00:03:42;;;;;;;82.75;36.17;;;;;;;-7.65;64.74;97186.96;1721461;83;25997;-85
2022/01/08 00:06:11;;;;;;;92.15;35.92;;;;;;;-7.67;64.78;97178.36;1721664;82;25651;-85
2022/01/08 00:08:37;;;;;;;92.65;36.68;;;;;;;-7.66;64.75;97176.95;1721529;83;27383;-84
2022/01/08 00:11:06;;;;;;;100.15;40.05;;;;;;;-7.66;64.75;97174.33;1721366;83;26015;-85
2022/01/08 00:13:33;;;;;;;102.50;39.90;;;;;;;-7.66;64.77;97178.26;1721446;82;25650;-87
2022/01/08 00:16:00;;;;;;;100.02;40.75;;;;;;;-7.67;64.79;97168.72;1721381;83;27036;-86
2022/01/08 00:18:27;;;;;;;91.50;38.13;;;;;;;-7.67;64.71;97175.73;1721291;83;25794;-86
2022/01/08 00:20:54;;;;;;;81.00;36.60;;;;;;;-7.75;64.72;97171.03;1721438;83;27561;-87
2022/01/08 00:23:20;;;;;;;88.60;38.88;;;;;;;-7.86;64.78;97169.62;1721364;83;25750;-86
2022/01/08 00:25:47;;;;;;;80.38;34.27;;;;;;;-7.93;64.91;97179.28;1721406;83;25778;-86
2022/01/08 00:28:14;;;;;;;84.30;34.23;;;;;;;-7.97;65.02;97171.28;1721554;83;25967;-85
2022/01/08 00:30:40;;;;;;;72.10;31.77;;;;;;;-7.99;64.99;97170.08;1721507;83;25732;-86
2022/01/08 00:33:07;;;;;;;78.10;32.33;;;;;;;-8.03;65.09;97177.30;1721222;83;27424;-86
2022/01/08 00:35:33;;;;;;;72.20;30.60;;;;;;;-8.04;65.09;97167.75;1721401;83;27555;-86
2022/01/08 00:38:01;;;;;;;72.87;31.15;;;;;;;-7.99;65.14;97164.84;1721561;83;25769;-87
2022/01/08 00:40:28;;;;;;;68.35;29.45;;;;;;;-7.95;65.13;97164.14;1721329;83;26871;-85
2022/01/08 00:42:54;;;;;;;72.87;31.07;;;;;;;-7.93;65.12;97165.72;1721469;82;25268;-86
2022/01/08 00:45:21;;;;;;;71.77;32.03;;;;;;;-7.91;65.09;97174.31;1721416;82;27322;-85
2022/01/08 00:47:47;;;;;;;69.95;30.52;;;;;;;-7.91;65.05;97166.45;1732073;81;25961;-84
2022/01/08 00:50:14;;;;;;;67.72;29.23;;;;;;;-7.91;65.10;97163.84;1722806;82;25749;-86
2022/01/08 00:52:42;;;;;;;64.85;28.38;;;;;;;-7.93;65.14;97173.58;1725586;81;26838;-84
2022/01/08 00:55:10;;;;;;;62.90;26.07;;;;;;;-7.94;65.11;97173.67;1749074;81;25770;-86
2022/01/08 00:57:37;;;;;;;58.98;25.00;;;;;;;-7.94;65.14;97178.45;1722418;82;28185;-86
2022/01/08 01:00:11;;;;;;;54.30;24.75;;;;;;;-7.92;65.07;97184.42;1724569;81;25799;-86
2022/01/08 01:02:39;;;;;;;61.42;27.55;;;;;;;-7.91;64.97;97183.48;1722724;81;25674;-85
2022/01/08 01:05:07;;;;;;;63.30;28.45;;;;;;;-7.91;64.99;97180.86;1722518;81;26150;-85
2022/01/08 01:07:34;;;;;;;56.73;25.62;;;;;;;-7.91;64.94;97174.78;1722490;83;25721;-83
2022/01/08 01:10:01;;;;;;;62.25;26.62;;;;;;;-7.93;65.02;97174.89;1722149;81;27512;-85
2022/01/08 01:12:28;;;;;;;55.73;25.17;;;;;;;-7.95;64.99;97179.38;1722121;81;25779;-86
2022/01/08 01:14:55;;;;;;;60.73;28.42;;;;;;;-7.93;65.01;97176.66;1722404;82;25260;-84
2022/01/08 01:17:21;;;;;;;68.85;29.70;;;;;;;-7.92;64.95;97176.56;1722435;81;26143;-87
2022/01/08 01:19:49;;;;;;;61.70;27.42;;;;;;;-7.93;64.91;97178.81;1722491;82;25682;-86
2022/01/08 01:22:18;;;;;;;65.83;27.15;;;;;;;-7.94;64.90;97169.75;1722510;81;27543;-86
2022/01/08 01:24:45;;;;;;;57.20;25.43;;;;;;;-7.97;64.80;97165.58;1722266;82;26427;-85
2022/01/08 01:30:08;;;;;;;54.80;26.20;;;;;;;-8.08;64.82;97147.09;1722165;82;26013;-86
2022/01/08 01:47:00;;;;;;;44.38;21.87;;;;;;;-8.26;65.08;97133.94;1722386;81;26027;-85
2022/01/08 01:48:51;;;;;;;56.42;25.10;;;;;;;-8.33;65.09;97137.95;1722456;82;27230;-85
2022/01/08 01:51:20;;;;;;;60.03;27.42;;;;;;;-8.35;65.20;97139.83;1722405;81;25795;-86
2022/01/08 01:53:48;;;;;;;71.07;31.97;;;;;;;-8.39;65.16;97143.11;1722159;81;25663;-86
2022/01/08 01:56:19;;;;;;;65.78;30.62;;;;;;;-8.39;65.29;97145.27;1722130;82;26039;-85
2022/01/08 01:58:47;;;;;;;64.58;28.62;;;;;;;-8.44;65.21;97139.95;1722587;82;34109;-86
2022/01/08 02:01:14;;;;;;;52.88;23.70;;;;;;;-8.45;65.34;97148.27;1722396;81;27442;-86
2022/01/08 02:03:42;;;;;;;56.45;25.05;;;;;;;-8.45;65.36;97149.58;1722307;82;25824;-86
2022/01/08 02:06:09;;;;;;;62.13;27.10;;;;;;;-8.46;65.35;97141.86;1722453;82;25742;-86
2022/01/08 02:08:41;;;;;;;77.80;34.00;;;;;;;-8.44;65.36;97145.18;1722387;82;26253;-85
2022/01/08 02:11:08;;;;;;;88.67;41.08;;;;;;;-8.51;65.40;97131.67;1725006;81;25719;-86
2022/01/08 02:13:36;;;;;;;83.80;38.25;;;;;;;-8.58;65.55;97130.88;1747324;81;28133;-85
2022/01/08 02:16:06;;;;;;;73.97;36.40;;;;;;;-8.55;65.57;97131.97;1722248;82;25961;-84
2022/01/08 02:18:36;;;;;;;66.92;30.25;;;;;;;-8.56;65.59;97125.89;1722413;82;25264;-85
2022/01/08 02:21:03;;;;;;;56.98;26.17;;;;;;;-8.57;65.60;97122.91;1722337;82;25995;-85
2022/01/08 02:23:30;;;;;;;61.53;27.32;;;;;;;-8.58;65.63;97122.56;1722368;82;25767;-84
2022/01/08 02:26:09;;;;;;;55.67;27.07;;;;;;;-8.58;65.74;97119.11;1722404;81;27580;-84
2022/01/08 02:28:38;;;;;;;57.98;27.25;;;;;;;-8.58;65.72;97119.95;1722378;81;25774;-85
2022/01/08 02:31:05;;;;;;;59.58;27.62;;;;;;;-8.58;65.71;97123.88;1722407;82;25686;-84
2022/01/08 02:33:32;;;;;;;53.48;25.40;;;;;;;-8.55;65.78;97116.27;1729840;81;26143;-85
2022/01/08 02:36:04;;;;;;;52.65;24.72;;;;;;;-8.57;65.79;97111.63;1722269;81;25536;-85
2022/01/08 02:38:30;;;;;;;;;;;;;;;-8.57;65.76;97111.13;1729247;81;27361;-86
2022/01/08 02:41:02;;;;;;;45.85;20.92;;;;;;;-8.61;65.86;97110.98;1721950;81;25701;-85
2022/01/08 02:43:28;;;;;;;40.33;18.82;;;;;;;-8.65;65.75;97107.34;1721856;81;25495;-83
2022/01/08 02:45:54;;;;;;;41.23;19.00;;;;;;;-8.68;65.79;97097.91;1722282;81;25973;-84
2022/01/08 02:48:21;;;;;;;37.60;17.27;;;;;;;-8.73;65.78;97097.39;1749245;81;25264;-85
2022/01/08 02:50:48;;;;;;;38.13;17.77;;;;;;;-8.73;65.83;97092.16;1746913;81;28306;-86
2022/01/08 02:53:14;;;;;;;34.53;17.87;;;;;;;-8.72;65.86;97086.45;1750027;81;25746;-87
2022/01/08 02:55:41;;;;;;;36.93;16.77;;;;;;;-8.77;65.84;97086.28;1752303;81;25701;-84
2022/01/08 02:58:08;;;;;;;37.05;17.27;;;;;;;-8.77;65.81;97083.66;1752362;80;25801;-87
2022/01/08 03:00:34;;;;;;;41.60;18.37;;;;;;;-8.76;65.91;97081.89;1752294;81;25774;-87
2022/01/08 03:03:01;;;;;;;35.35;17.95;;;;;;;-8.77;66.00;97079.74;1752326;81;27345;-86
2022/01/08 03:05:28;;;;;;;45.08;17.77;;;;;;;-8.80;66.04;97069.94;1752204;81;25980;-87
2022/01/08 03:07:54;;;;;;;36.85;17.80;;;;;;;-8.83;66.03;97074.93;1752324;81;25685;-87
2022/01/08 03:10:21;;;;;;;40.63;19.05;;;;;;;-8.82;66.04;97071.38;1752330;81;26391;-87
2022/01/08 03:12:49;;;;;;;42.40;20.62;;;;;;;-8.79;66.07;97075.55;1752412;81;25690;-86
2022/01/08 03:15:20;;;;;;;45.95;23.12;;;;;;;-8.78;66.21;97071.52;1737168;81;27455;-83
2022/01/08 03:17:47;;;;;;;45.23;21.55;;;;;;;-8.82;66.17;97075.30;1747804;81;25259;-85
2022/01/08 03:20:15;;;;;;;45.45;20.62;;;;;;;-8.86;66.17;97059.89;1752331;81;25537;-86
2022/01/08 03:22:46;;;;;;;41.28;19.30;;;;;;;-8.83;66.20;97064.47;1747201;81;25975;-84
2022/01/08 03:25:14;;;;;;;41.13;20.10;;;;;;;-8.79;66.28;97054.61;1732661;81;25767;-87
2022/01/08 03:27:41;;;;;;;42.85;19.00;;;;;;;-8.78;66.22;97053.67;1730427;81;27322;-86
2022/01/08 03:30:12;;;;;;;41.50;19.90;;;;;;;-8.78;66.27;97042.74;1732255;81;25997;-86
2022/01/08 03:32:39;;;;;;;37.23;17.65;;;;;;;-8.77;66.25;97043.58;1752533;81;25724;-87
2022/01/08 03:35:07;;;;;;;36.03;16.50;;;;;;;-8.77;66.20;97043.58;1752095;81;26037;-86
2022/01/08 03:37:34;;;;;;;36.80;15.98;;;;;;;-8.77;66.22;97033.95;1737088;81;25424;-84
2022/01/08 03:40:00;;;;;;;35.92;17.48;;;;;;;-8.80;66.20;97038.55;1729214;81;27168;-87
2022/01/08 03:42:27;;;;;;;35.08;15.65;;;;;;;-8.79;66.18;97046.30;1738151;81;25913;-87
2022/01/08 03:44:53;;;;;;;30.00;15.40;;;;;;;-8.80;66.16;97052.94;1731937;81;25699;-83
2022/01/08 03:47:42;;;;;;;36.10;17.10;;;;;;;-8.85;66.14;97049.34;1743826;81;26020;-84
2022/01/08 03:49:58;;;;;;;37.13;16.95;;;;;;;-8.93;66.13;97044.22;1724836;81;25293;-86
2022/01/08 03:52:26;;;;;;;35.50;16.65;;;;;;;-8.96;66.19;97032.67;1750774;81;27398;-86
2022/01/08 03:54:53;;;;;;;35.52;17.45;;;;;;;-8.97;66.32;97035.75;1752057;81;25737;-86
2022/01/08 03:57:19;;;;;;;44.73;18.95;;;;;;;-9.03;66.34;97031.38;1752470;81;26006;-87
2022/01/08 03:59:46;;;;;;;45.05;20.48;;;;;;;-9.07;66.41;97031.23;1736194;81;26195;-86
2022/01/08 04:02:13;;;;;;;46.55;19.60;;;;;;;-9.12;66.43;97030.22;1752246;81;25666;-85
2022/01/08 04:04:39;;;;;;;38.13;17.32;;;;;;;-9.14;66.48;97027.70;1746322;81;27353;-85
2022/01/08 04:07:06;;;;;;;40.65;18.77;;;;;;;-9.14;66.49;97017.23;1730146;81;26014;-84
2022/01/08 04:09:33;;;;;;;47.00;20.10;;;;;;;-9.13;66.57;97021.53;1746605;81;25824;-85
2022/01/08 04:11:59;;;;;;;40.33;18.67;;;;;;;-9.11;66.55;97020.97;1752442;81;26000;-86
2022/01/08 04:14:34;;;;;;;40.30;19.70;;;;;;;-9.08;66.56;97017.78;1738816;81;25816;-86
2022/01/08 04:16:54;;;;;;;37.93;18.92;;;;;;;-9.08;66.61;97024.33;1751709;81;27485;-85
2022/01/08 04:19:21;;;;;;;46.08;22.85;;;;;;;-9.01;66.62;97021.66;1746571;81;25963;-86
2022/01/08 04:22:11;;;;;;;42.03;20.52;;;;;;;-8.99;66.65;97019.79;1747516;80;25718;-86
2022/01/08 04:24:27;;;;;;;39.13;18.65;;;;;;;-9.00;66.58;97024.65;1771762;80;26009;-86
2022/01/08 04:26:53;;;;;;;41.33;19.12;;;;;;;-9.03;66.53;97011.77;1717767;83;25702;-86
2022/01/08 04:29:20;;;;;;;40.92;20.43;;;;;;;-9.02;66.61;97013.45;1718341;81;27571;-85
2022/01/08 04:31:46;;;;;;;40.63;19.17;;;;;;;-8.95;66.66;97013.42;1722384;83;25753;-85
2022/01/08 04:34:13;;;;;;;38.35;18.73;;;;;;;-8.97;66.54;97000.91;1722598;83;25716;-86
2022/01/08 04:36:40;;;;;;;35.95;17.12;;;;;;;-9.00;66.59;96989.34;1722494;81;25964;-86
2022/01/08 04:39:06;;;;;;;32.25;16.87;;;;;;;-9.00;66.57;96990.66;1722639;83;25746;-86
2022/01/08 04:41:33;;;;;;;40.98;17.62;;;;;;;-8.99;66.60;97000.17;1722384;83;28337;-86
2022/01/08 04:43:59;;;;;;;36.13;16.45;;;;;;;-8.99;66.63;96998.87;1722478;83;25859;-85
2022/01/08 04:46:26;;;;;;;33.58;16.23;;;;;;;-9.04;66.64;96987.39;1722502;82;26357;-85
2022/01/08 04:48:53;;;;;;;30.80;16.20;;;;;;;-9.05;66.67;96984.88;1722587;83;26056;-86
2022/01/08 04:51:19;;;;;;;39.25;18.73;;;;;;;-9.04;66.70;96978.23;1722577;83;25701;-86
2022/01/08 04:53:46;;;;;;;38.92;18.65;;;;;;;-9.03;66.78;96981.69;1722322;82;27493;-85
2022/01/08 04:56:12;;;;;;;37.60;18.90;;;;;;;-9.01;66.80;96985.05;1722417;83;25713;-85
2022/01/08 04:58:40;;;;;;;37.83;18.67;;;;;;;-8.94;66.92;96974.57;1722509;83;26323;-86
2022/01/08 05:01:15;;;;;;;34.78;17.77;;;;;;;-8.88;67.00;96981.98;1722468;82;25988;-86
2022/01/08 05:03:42;;;;;;;32.53;15.93;;;;;;;-8.84;66.87;96983.00;1722422;83;25683;-85
2022/01/08 05:06:09;;;;;;;33.80;16.80;;;;;;;-8.83;66.84;96986.45;1722471;81;27191;-86
2022/01/08 05:08:36;;;;;;;31.12;16.37;;;;;;;-8.80;66.85;96979.69;1722070;82;25885;-86
2022/01/08 05:11:02;;;;;;;37.75;18.98;;;;;;;-8.82;66.83;96986.83;1722368;83;25733;-85
2022/01/08 05:13:29;;;;;;;32.45;16.30;;;;;;;-8.88;66.86;96984.14;1722468;82;26195;-85
2022/01/08 05:15:57;;;;;;;35.38;19.50;;;;;;;-8.84;66.91;96992.16;1722512;83;25707;-85
2022/01/08 05:18:24;;;;;;;33.58;18.25;;;;;;;-8.81;67.01;96986.70;1707193;83;27544;-85
2022/01/08 05:21:06;;;;;;;33.33;18.70;;;;;;;-8.77;67.03;96996.02;1722264;81;25702;-85
2022/01/08 05:23:19;;;;;;;41.42;18.35;;;;;;;-8.69;67.06;96997.31;1720418;81;25684;-86
2022/01/08 05:25:46;;;;;;;39.58;19.00;;;;;;;-8.63;66.99;97001.64;1722349;83;25702;-86
2022/01/08 05:28:12;;;;;;;45.33;20.57;;;;;;;-8.66;66.74;96999.69;1722575;83;25260;-84
2022/01/08 05:30:39;;;;;;;44.93;20.40;;;;;;;-8.69;66.62;97006.47;1722446;83;27339;-86
2022/01/08 05:33:06;;;;;;;40.45;19.00;;;;;;;-8.69;66.68;97005.97;1722451;83;25709;-85
2022/01/08 05:35:32;;;;;;;38.00;17.15;;;;;;;-8.67;66.72;96996.70;1716262;82;25745;-87
2022/01/08 05:37:59;;;;;;;40.48;18.35;;;;;;;-8.69;66.74;96995.50;1716318;83;26051;-86
2022/01/08 05:40:25;;;;;;;43.63;21.05;;;;;;;-8.66;66.79;97007.07;1709111;82;26271;-85
2022/01/08 05:42:52;;;;;;;34.08;16.10;;;;;;;-8.65;66.85;97011.37;1711886;82;28627;-85
2022/01/08 05:45:19;;;;;;;33.85;17.20;;;;;;;-8.67;66.80;97002.78;1722349;83;25928;-86
2022/01/08 05:47:45;;;;;;;39.90;20.57;;;;;;;-8.69;66.82;97010.39;1722454;83;25715;-86
2022/01/08 05:50:12;;;;;;;41.30;19.23;;;;;;;-8.75;66.70;97011.16;1717776;82;27404;-85
2022/01/08 05:52:39;;;;;;;52.53;22.37;;;;;;;-8.75;66.76;97007.70;1722362;83;25743;-86
2022/01/08 05:55:06;;;;;;;49.20;21.48;;;;;;;-8.75;66.80;97014.23;1722054;82;27290;-86
2022/01/08 05:57:33;;;;;;;78.42;29.57;;;;;;;-8.74;66.83;97005.45;1722284;83;25909;-86
2022/01/08 06:00:01;;;;;;;52.15;21.68;;;;;;;-8.75;66.87;97011.63;1722415;83;25710;-85
2022/01/08 06:02:27;;;;;;;63.13;25.65;;;;;;;-8.72;66.89;97028.43;1722411;83;26026;-85
2022/01/08 06:04:54;;;;;;;64.10;25.32;;;;;;;-8.68;66.86;97011.56;1722423;83;25829;-84
2022/01/08 06:07:21;;;;;;;56.95;24.00;;;;;;;-8.68;66.89;97019.41;1722389;83;28101;-85
2022/01/08 06:09:47;;;;;;;66.82;27.95;;;;;;;-8.69;66.79;97012.50;1722295;83;25853;-86
2022/01/08 06:12:14;;;;;;;52.20;22.93;;;;;;;-8.68;66.79;97015.48;1721798;82;25758;-86
2022/01/08 06:14:40;;;;;;;57.85;24.35;;;;;;;-8.70;66.73;97014.78;1732926;82;26232;-85
2022/01/08 06:17:07;;;;;;;52.20;23.35;;;;;;;-8.74;66.77;97011.52;1759980;80;25839;-85
2022/01/08 06:19:34;;;;;;;50.55;23.67;;;;;;;-8.70;66.85;97008.24;1709716;83;27445;-85
2022/01/08 06:22:01;;;;;;;58.02;25.88;;;;;;;-8.67;66.86;97011.09;1730955;82;25800;-86
2022/01/08 06:24:28;;;;;;;57.08;27.40;;;;;;;-8.61;66.87;97012.01;1722379;82;26398;-86
2022/01/08 06:26:55;;;;;;;57.33;27.17;;;;;;;-8.57;66.90;97015.60;1722253;82;26746;-85
2022/01/08 06:29:21;;;;;;;51.35;24.50;;;;;;;-8.57;66.89;97018.72;1722222;81;25758;-84
2022/01/08 06:31:48;;;;;;;62.65;28.27;;;;;;;-8.56;66.84;97021.20;1722353;82;27392;-84
2022/01/08 06:34:15;;;;;;;68.57;29.32;;;;;;;-8.60;66.80;97021.06;1729218;81;25906;-84
2022/01/08 06:36:41;;;;;;;64.10;29.12;;;;;;;-8.66;66.76;97020.16;1723481;81;25732;-86
2022/01/08 06:39:08;;;;;;;69.05;30.90;;;;;;;-8.67;66.76;97017.17;1730406;81;26038;-86
2022/01/08 06:41:34;;;;;;;64.27;28.40;;;;;;;-8.65;66.80;97006.13;1751093;81;25675;-84
2022/01/08 06:44:01;;;;;;;70.17;31.20;;;;;;;-8.71;66.82;97009.18;1752384;81;27358;-85
2022/01/08 06:46:27;;;;;;;56.77;27.90;;;;;;;-8.71;66.91;97015.72;1752234;81;25973;-86
2022/01/08 06:48:54;;;;;;;59.77;28.55;;;;;;;-8.71;66.92;97015.72;1752293;81;26280;-85
2022/01/08 06:51:21;;;;;;;58.30;28.62;;;;;;;-8.71;66.93;97010.48;1752344;81;26922;-85
2022/01/08 06:53:47;;;;;;;67.62;34.63;;;;;;;-8.75;67.01;97006.39;1726486;81;25710;-86
2022/01/08 06:56:14;;;;;;;67.55;33.48;;;;;;;-8.72;67.05;97012.73;1752436;81;27508;-85
2022/01/08 06:58:41;;;;;;;55.73;28.60;;;;;;;-8.64;67.05;97013.52;1744858;81;25865;-85
2022/01/08 07:01:08;;;;;;;58.33;32.08;;;;;;;-8.63;66.94;97009.95;1745864;81;26537;-86
2022/01/08 07:03:35;;;;;;;69.67;30.95;;;;;;;-8.61;66.98;97012.84;1732835;81;26129;-84
2022/01/08 07:06:01;;;;;;;63.08;29.18;;;;;;;-8.59;67.02;97012.28;1752528;81;25675;-85
2022/01/08 07:08:28;;;;;;;64.87;30.35;;;;;;;-8.56;66.94;97016.44;1752448;81;27501;-86
2022/01/08 07:10:55;;;;;;;63.87;29.98;;;;;;;-8.60;66.88;97011.91;1747785;81;25742;-85
2022/01/08 07:13:21;;;;;;;61.35;27.52;;;;;;;-8.65;66.95;97009.22;1752437;81;25713;-86
2022/01/08 07:15:48;;;;;;;77.80;33.30;;;;;;;-8.66;66.91;97004.45;1752465;81;26554;-83
2022/01/08 07:18:15;;;;;;;65.08;30.43;;;;;;;-8.67;66.97;96994.93;1723802;80;25701;-85
2022/01/08 07:20:42;;;;;;;72.90;35.13;;;;;;;-8.64;67.00;97003.89;1722209;82;27421;-85
2022/01/08 07:23:08;;;;;;;71.33;32.03;;;;;;;-8.63;67.08;97008.66;1730168;81;25726;-85
2022/01/08 07:25:35;;;;;;;69.75;31.45;;;;;;;-8.56;67.12;97011.20;1734532;81;25880;-85
2022/01/08 07:28:02;;;;;;;72.37;34.60;;;;;;;-8.47;67.12;97005.37;1722490;82;26135;-85
2022/01/08 07:30:28;;;;;;;58.98;29.98;;;;;;;-8.41;67.18;97007.09;1722489;82;26068;-84
2022/01/08 07:32:55;;;;;;;64.92;29.95;;;;;;;-8.34;67.25;97003.59;1722501;81;27323;-85
2022/01/08 07:35:23;;;;;;;63.85;30.70;;;;;;;-8.29;67.29;96996.69;1722386;82;25901;-83
2022/01/08 07:37:51;;;;;;;70.55;34.38;;;;;;;-8.21;67.38;96998.32;1722465;82;25837;-83
2022/01/08 07:40:20;;;;;;;78.00;35.90;;;;;;;-8.12;67.21;96991.13;1726612;81;26054;-84
2022/01/08 07:42:47;;;;;;;74.47;35.88;;;;;;;-8.06;67.19;96984.97;1722628;82;26291;-83
2022/01/08 07:45:15;;;;;;;69.82;34.00;;;;;;;-8.00;67.20;96983.25;1727158;81;28274;-86
2022/01/08 07:47:41;;;;;;;71.05;35.70;;;;;;;-7.90;67.18;96985.22;1735688;81;25888;-87
2022/01/08 07:50:09;;;;;;;71.33;37.05;;;;;;;-7.79;67.21;96978.27;1752437;81;25259;-87
2022/01/08 07:52:36;;;;;;;74.70;36.70;;;;;;;-7.71;67.25;96973.78;1731501;81;26042;-86
2022/01/08 07:55:03;;;;;;;67.22;34.78;;;;;;;-7.58;67.29;96976.36;1734074;81;25751;-83
2022/01/08 07:57:29;;;;;;;70.50;33.35;;;;;;;-7.48;67.27;96970.81;1722386;83;28262;-87
2022/01/08 07:59:56;;;;;;;69.85;31.57;;;;;;;-7.33;67.45;96969.70;1722229;81;25726;-88
2022/01/08 08:02:23;;;;;;;69.97;31.97;;;;;;;-7.20;67.25;96974.41;1732150;81;25682;-85
2022/01/08 08:04:49;;;;;;;65.65;29.18;;;;;;;-7.06;67.18;96966.36;1744570;81;25917;-87
2022/01/08 08:07:29;;;;;;;67.97;28.15;;;;;;;-6.89;66.97;96948.54;1731698;81;25771;-85
2022/01/08 08:09:56;;;;;;;67.27;29.70;;;;;;;-6.73;66.94;96949.03;1724998;81;28384;-86
2022/01/08 08:12:23;;;;;;;81.63;32.28;;;;;;;-6.57;66.95;96941.67;1728169;81;25757;-85
2022/01/08 08:14:50;;;;;;;92.27;37.88;;;;;;;-6.41;66.77;96946.13;1724267;81;25696;-85
2022/01/08 08:17:17;;;;;;;66.25;29.30;;;;;;;-6.23;66.69;96942.05;1752268;81;26558;-86
2022/01/08 08:19:44;;;;;;;63.83;27.55;;;;;;;-6.06;66.44;96939.91;1733799;80;25693;-84
2022/01/08 08:22:11;;;;;;;58.28;24.98;;;;;;;-5.87;66.26;96936.14;1722256;81;27375;-86
2022/01/08 08:24:37;;;;;;;58.75;26.20;;;;;;;-5.69;66.08;96932.06;1722173;83;25750;-86
2022/01/08 08:27:04;;;;;;;65.10;29.55;;;;;;;-5.51;66.08;96930.56;1723792;81;26279;-85
2022/01/08 08:29:31;;;;;;;49.45;22.82;;;;;;;-5.29;66.06;96922.23;1733743;81;26064;-85
2022/01/08 08:31:57;;;;;;;44.77;20.32;;;;;;;-5.10;65.79;96923.25;1746522;81;26163;-86
2022/01/08 08:34:24;;;;;;;43.30;18.45;;;;;;;-4.84;65.41;96911.05;1731071;81;28375;-84
2022/01/08 08:36:51;;;;;;;38.42;16.73;;;;;;;-4.61;65.28;96918.32;1738989;81;26444;-82
2022/01/08 08:39:17;;;;;;;39.53;17.05;;;;;;;-4.39;64.88;96930.02;1722211;81;25683;-84
2022/01/08 08:41:44;;;;;;;39.10;18.00;;;;;;;-4.17;64.29;96930.33;1722407;83;25964;-86
2022/01/08 08:44:10;;;;;;;48.80;18.50;;;;;;;-3.98;63.91;96927.76;1722434;83;25683;-84
2022/01/08 08:46:37;;;;;;;31.68;14.95;;;;;;;-3.81;63.77;96915.27;1722270;81;27024;-85
2022/01/08 08:49:03;;;;;;;34.15;13.43;;;;;;;-3.64;63.47;96916.44;1722319;83;25295;-86
2022/01/08 08:51:30;;;;;;;32.30;16.02;;;;;;;-3.52;63.38;96917.98;1722408;81;25941;-86
2022/01/08 08:53:56;;;;;;;35.17;16.07;;;;;;;-3.38;63.13;96912.80;1722340;81;26113;-84
2022/01/08 08:56:23;;;;;;;53.52;23.70;;;;;;;-3.26;62.88;96915.14;1722166;81;25769;-85
2022/01/08 08:58:50;;;;;;;42.60;20.62;;;;;;;-3.12;62.72;96907.79;1722119;82;27468;-83
2022/01/08 09:01:17;;;;;;;39.33;17.87;;;;;;;-3.00;62.59;96908.83;1727507;81;26053;-85
2022/01/08 09:03:43;;;;;;;38.88;16.82;;;;;;;-2.81;62.25;96905.36;1722405;82;25716;-85
2022/01/08 09:06:10;;;;;;;29.67;14.30;;;;;;;-2.62;61.84;96911.09;1722291;83;26917;-82
2022/01/08 09:08:37;;;;;;;33.35;16.07;;;;;;;-2.45;61.48;96905.57;1744076;81;25749;-82
2022/01/08 09:11:03;;;;;;;30.05;13.62;;;;;;;-2.23;61.34;96898.13;1747371;81;27518;-82
2022/01/08 09:13:30;;;;;;;31.25;12.70;;;;;;;-2.01;61.22;96889.48;1725299;81;25847;-83
2022/01/08 09:15:57;;;;;;;28.80;12.88;;;;;;;-1.87;60.58;96884.55;1722308;83;25741;-83
2022/01/08 09:18:23;;;;;;;26.55;12.47;;;;;;;-1.67;60.46;96880.45;1722411;83;26025;-83
2022/01/08 09:20:50;;;;;;;26.97;11.78;;;;;;;-1.55;59.98;96877.94;1722348;83;25800;-85
2022/01/08 09:23:17;;;;;;;25.43;13.00;;;;;;;-1.52;59.58;96881.13;1722453;83;27347;-83
2022/01/08 09:25:43;;;;;;;26.80;12.35;;;;;;;-1.41;59.17;96884.55;1722249;82;25765;-83
2022/01/08 09:28:10;;;;;;;29.98;13.53;;;;;;;-1.36;58.93;96879.64;1721978;81;25718;-83
2022/01/08 09:30:36;;;;;;;29.65;13.10;;;;;;;-1.36;58.73;96882.30;1737779;81;26862;-84
2022/01/08 09:33:03;;;;;;;34.43;15.28;;;;;;;-1.33;58.48;96877.54;1751310;81;25823;-83
2022/01/08 09:35:30;;;;;;;38.35;16.10;;;;;;;-1.29;58.33;96880.70;1749737;81;27595;-83
2022/01/08 09:37:57;;;;;;;35.65;15.35;;;;;;;-1.24;58.19;96876.63;1746961;81;25788;-83
2022/01/08 09:40:24;;;;;;;35.52;15.20;;;;;;;-1.12;58.17;96876.74;1745236;81;25784;-87
2022/01/08 09:42:51;;;;;;;22.02;12.07;;;;;;;-0.98;57.93;96877.19;1738995;81;26403;-85
2022/01/08 09:45:18;;;;;;;25.17;12.45;;;;;;;-0.85;57.60;96871.84;1734940;81;25634;-84
2022/01/08 09:47:45;;;;;;;24.25;12.20;;;;;;;-0.77;57.22;96880.34;1745775;81;27377;-85
2022/01/08 09:50:12;;;;;;;24.80;13.20;;;;;;;-0.63;56.92;96877.63;1750292;81;26308;-85
2022/01/08 09:52:39;;;;;;;24.87;12.20;;;;;;;-0.49;57.06;96869.95;1748831;81;26458;-85
2022/01/08 09:55:07;;;;;;;27.30;13.18;;;;;;;-0.25;56.47;96865.78;1734360;81;26134;-86
2022/01/08 09:57:34;;;;;;;25.20;13.50;;;;;;;-0.22;55.90;96865.45;1757276;80;25327;-85
2022/01/08 10:00:01;;;;;;;27.07;13.53;;;;;;;-0.20;55.84;96862.14;1744475;81;27378;-85
2022/01/08 10:02:28;;;;;;;30.17;14.73;;;;;;;-0.08;55.99;96856.91;1740039;81;26304;-85
2022/01/08 10:05:00;;;;;;;32.03;14.95;;;;;;;-0.11;55.39;96862.52;1738782;81;25812;-86
2022/01/08 10:07:27;;;;;;;27.93;14.03;;;;;;;-0.03;55.66;96859.92;1727574;81;26799;-88
2022/01/08 10:10:13;;;;;;;30.82;14.70;;;;;;;0.07;55.27;96862.45;1754374;81;25839;-85
2022/01/08 10:12:53;;;;;;;25.10;13.13;;;;;;;0.29;55.19;96865.36;1754167;81;27397;-86
2022/01/08 10:18:36;;;;;;;41.63;17.40;;;;;;;0.62;54.95;96864.11;1730607;81;25763;-87
2022/01/08 10:21:25;;;;;;;44.90;19.50;;;;;;;0.71;54.34;96869.80;1755740;81;26511;-86
2022/01/08 10:24:05;;;;;;;78.78;27.73;;;;;;;0.67;54.04;96870.61;1743987;81;25775;-86
2022/01/08 10:26:39;;;;;;;33.92;15.93;;;;;;;0.69;54.05;96871.78;1680605;83;27466;-85
2022/01/08 10:29:12;;;;;;;33.70;15.53;;;;;;;0.76;53.59;96871.95;1680669;84;26002;-84
2022/01/08 10:31:48;;;;;;;59.45;25.20;;;;;;;0.78;53.34;96876.11;1679835;85;25824;-86
2022/01/08 10:34:19;;;;;;;34.33;16.52;;;;;;;0.89;53.18;96882.94;1673777;85;26013;-87
2022/01/08 10:36:51;;;;;;;33.20;15.03;;;;;;;1.03;53.07;96890.27;1666095;85;25888;-86
2022/01/08 10:39:22;;;;;;;29.00;14.45;;;;;;;1.03;52.54;96876.48;1669673;83;27453;-85
2022/01/08 10:41:52;;;;;;;34.85;15.83;;;;;;;1.18;52.66;96863.87;1675555;85;26147;-87
2022/01/08 10:44:23;;;;;;;34.78;15.75;;;;;;;1.37;52.73;96864.34;1669931;83;26042;-85
2022/01/08 10:47:16;;;;;;;30.65;14.43;;;;;;;1.51;51.91;96855.36;1680871;83;26763;-88
2022/01/08 10:49:51;;;;;;;35.33;17.90;;;;;;;1.71;51.93;96857.48;1662661;83;26019;-85
2022/01/08 10:52:20;;;;;;;32.60;17.00;;;;;;;1.97;51.89;96858.59;1678020;84;27375;-86
2022/01/08 10:54:59;;;;;;;33.10;16.90;;;;;;;2.23;51.49;96853.01;1681587;84;26004;-86
2022/01/08 10:57:38;;;;;;;39.88;18.90;;;;;;;2.39;51.13;96854.28;1663104;85;26267;-87
2022/01/08 11:00:09;;;;;;;34.13;17.48;;;;;;;2.41;51.17;96846.95;1654065;86;25969;-86
2022/01/08 11:02:38;;;;;;;36.48;18.85;;;;;;;2.40;50.66;96850.61;1657230;82;25731;-87
2022/01/08 11:05:08;;;;;;;37.17;18.62;;;;;;;2.48;50.46;96849.23;1742735;82;26926;-87
2022/01/08 11:07:35;;;;;;;37.75;19.77;;;;;;;2.59;50.69;96841.34;1728343;82;25960;-87
2022/01/08 11:10:12;;;;;;;30.52;16.75;;;;;;;2.73;50.52;96838.44;1735353;81;26500;-87
2022/01/08 11:12:42;;;;;;;36.10;17.82;;;;;;;2.89;49.90;96839.67;1742225;80;26819;-88
2022/01/08 11:17:49;;;;;;;38.35;19.12;;;;;;;3.02;49.33;96831.88;1733143;81;28456;-89
2022/01/08 11:20:26;;;;;;;35.80;18.30;;;;;;;3.30;48.84;96835.34;1728524;82;25778;-90
2022/01/08 11:22:55;;;;;;;39.98;19.50;;;;;;;3.39;48.96;96830.25;1749766;81;25300;-88
2022/01/08 11:25:30;;;;;;;36.53;17.85;;;;;;;3.41;48.94;96829.56;1754109;80;26782;-89
2022/01/08 11:28:15;;;;;;;33.35;17.98;;;;;;;3.32;48.73;96837.33;1758834;80;25696;-90
2022/01/08 11:30:52;;;;;;;35.10;18.32;;;;;;;3.28;48.74;96826.68;1749635;81;28167;-89
2022/01/08 11:33:27;;;;;;;36.53;18.77;;;;;;;3.19;48.42;96822.76;1742616;81;25840;-91
2022/01/08 11:35:51;;;;;;;39.58;18.70;;;;;;;3.01;48.16;96811.59;1744899;80;26247;-90
2022/01/08 11:38:20;;;;;;;42.23;19.80;;;;;;;2.99;48.35;96804.27;1756889;81;26056;-90
2022/01/08 11:40:50;;;;;;;37.33;18.82;;;;;;;3.02;48.34;96795.89;1758179;81;26503;-91
2022/01/08 11:43:21;;;;;;;36.23;18.95;;;;;;;3.20;48.14;96804.42;1751421;81;27620;-91
2022/01/08 11:46:01;;;;;;;32.65;18.73;;;;;;;3.30;48.31;96798.82;1739929;81;25795;-90